Time;durP1;ratioP1;P1;durP2;ratioP2;P2;SDS_P1;SDS_P2;PMS_P1;PMS_P2;Temp;Humidity;BMP_temperature;BMP_pressure;BME280_temperature;BME280_humidity;BME280_pressure;Samples;Min_cycle;Max_cycle;Signal;HPM_P1;HPM_P2
2022/03/10 00:00:01;;;;;;;19.05;10.07;;;;;;;;;;5015912;28;20084;-73
2022/03/10 00:02:27;;;;;;;20.00;11.13;;;;;;;;;;5024200;28;20407;-72
2022/03/10 00:04:53;;;;;;;17.02;10.43;;;;;;;;;;5035356;28;20033;-71
2022/03/10 00:07:19;;;;;;;17.85;10.43;;;;;;;;;;5035478;28;20032;-72
2022/03/10 00:09:45;;;;;;;20.48;11.07;;;;;;;;;;5040518;28;20048;-72
2022/03/10 00:12:11;;;;;;;23.67;13.35;;;;;;;;;;5038249;28;20034;-72
2022/03/10 00:14:37;;;;;;;20.52;11.38;;;;;;;;;;5038950;28;20026;-72
2022/03/10 00:17:03;;;;;;;17.63;10.98;;;;;;;;;;5037091;28;20480;-72
2022/03/10 00:19:29;;;;;;;18.67;10.90;;;;;;;;;;5016328;28;20380;-72
2022/03/10 00:21:55;;;;;;;17.30;10.52;;;;;;;;;;5033168;28;20075;-72
2022/03/10 00:24:21;;;;;;;18.60;11.32;;;;;;;;;;5032824;28;20479;-71
2022/03/10 00:26:47;;;;;;;16.05;10.27;;;;;;;;;;5015181;28;20406;-71
2022/03/10 00:29:13;;;;;;;18.30;10.93;;;;;;;;;;5033127;28;20037;-71
2022/03/10 00:31:40;;;;;;;18.30;10.75;;;;;;;;;;5032910;28;20036;-72
2022/03/10 00:34:06;;;;;;;18.85;11.70;;;;;;;;;;5032671;28;20031;-71
2022/03/10 00:36:32;;;;;;;17.75;10.75;;;;;;;;;;5032767;28;20025;-72
2022/03/10 00:38:58;;;;;;;21.30;10.80;;;;;;;;;;5031804;28;20037;-72
2022/03/10 00:41:24;;;;;;;18.75;10.77;;;;;;;;;;5032746;28;20392;-71
2022/03/10 00:43:50;;;;;;;20.73;11.88;;;;;;;;;;5032550;28;20036;-72
2022/03/10 00:46:16;;;;;;;23.40;12.85;;;;;;;;;;5032702;28;20030;-72
2022/03/10 00:48:42;;;;;;;19.88;11.95;;;;;;;;;;5033625;28;20057;-71
2022/03/10 00:51:08;;;;;;;22.95;12.43;;;;;;;;;;5032557;28;20025;-72
2022/03/10 00:53:34;;;;;;;20.08;11.40;;;;;;;;;;5014436;28;20502;-72
2022/03/10 00:56:01;;;;;;;18.33;10.43;;;;;;;;;;5032645;28;20388;-72
2022/03/10 00:58:27;;;;;;;22.52;11.75;;;;;;;;;;5014765;28;20056;-72
2022/03/10 01:00:53;;;;;;;19.35;10.98;;;;;;;;;;5032282;28;20071;-72
2022/03/10 01:03:20;;;;;;;18.50;10.40;;;;;;;;;;5029849;28;20496;-71
2022/03/10 01:05:46;;;;;;;17.95;10.63;;;;;;;;;;5052100;28;20029;-72
2022/03/10 01:08:12;;;;;;;21.38;12.05;;;;;;;;;;5050292;28;20052;-71
2022/03/10 01:10:38;;;;;;;22.17;11.85;;;;;;;;;;5011171;28;20112;-72
2022/03/10 01:13:11;;;;;;;19.98;11.35;;;;;;;;;;5012219;28;20034;-72
2022/03/10 01:15:37;;;;;;;17.08;11.75;;;;;;;;;;5012440;28;20408;-73
2022/03/10 01:18:03;;;;;;;21.08;11.38;;;;;;;;;;5012390;28;20022;-73
2022/03/10 01:20:29;;;;;;;24.23;11.60;;;;;;;;;;5012133;28;20032;-73
2022/03/10 01:22:55;;;;;;;20.60;11.10;;;;;;;;;;5012337;28;20037;-73
2022/03/10 01:25:21;;;;;;;17.45;11.23;;;;;;;;;;5012525;28;20120;-72
2022/03/10 01:27:47;;;;;;;19.95;12.05;;;;;;;;;;5012435;28;20034;-71
2022/03/10 01:30:13;;;;;;;20.45;11.25;;;;;;;;;;5012263;28;20026;-70
2022/03/10 01:32:40;;;;;;;20.70;12.63;;;;;;;;;;5012143;28;20037;-71
2022/03/10 01:35:06;;;;;;;19.67;12.30;;;;;;;;;;5012257;28;20022;-72
2022/03/10 01:37:37;;;;;;;20.42;11.13;;;;;;;;;;5013606;28;20084;-73
2022/03/10 01:40:08;;;;;;;24.88;11.07;;;;;;;;;;5013692;28;20113;-73
2022/03/10 01:42:34;;;;;;;18.42;11.13;;;;;;;;;;5013324;28;20034;-72
2022/03/10 01:45:00;;;;;;;17.80;10.50;;;;;;;;;;5012764;28;20030;-73
2022/03/10 01:47:26;;;;;;;22.25;11.88;;;;;;;;;;5012959;28;20028;-72
2022/03/10 01:49:52;;;;;;;22.95;11.43;;;;;;;;;;5013300;28;20022;-72
2022/03/10 01:52:20;;;;;;;18.88;11.63;;;;;;;;;;5013447;28;20032;-72
2022/03/10 01:54:46;;;;;;;21.45;11.75;;;;;;;;;;5014433;28;20026;-73
2022/03/10 01:57:12;;;;;;;17.77;11.27;;;;;;;;;;5034211;28;20029;-72
2022/03/10 01:59:39;;;;;;;19.23;10.85;;;;;;;;;;5033999;28;20045;-72
2022/03/10 02:02:06;;;;;;;21.10;11.90;;;;;;;;;;5039221;28;20486;-73
2022/03/10 02:04:32;;;;;;;21.00;12.40;;;;;;;;;;5054609;28;20083;-73
2022/03/10 02:06:58;;;;;;;24.17;13.82;;;;;;;;;;5054679;28;20100;-73
2022/03/10 02:12:08;;;;;;;22.80;11.60;;;;;;;;;;5032394;28;20095;-73
2022/03/10 02:17:22;;;;;;;20.48;11.52;;;;;;;;;;5018810;28;20084;-72
2022/03/10 02:19:52;;;;;;;19.10;11.18;;;;;;;;;;5030740;28;20039;-73
2022/03/10 02:22:18;;;;;;;21.98;11.98;;;;;;;;;;5031878;28;20410;-73
2022/03/10 02:24:45;;;;;;;24.73;12.27;;;;;;;;;;5031765;28;20061;-73
2022/03/10 02:27:14;;;;;;;25.58;12.45;;;;;;;;;;5031666;28;20148;-72
2022/03/10 02:29:44;;;;;;;17.95;11.07;;;;;;;;;;5032288;28;20034;-73
2022/03/10 02:32:11;;;;;;;20.58;11.98;;;;;;;;;;5034432;28;20375;-73
2022/03/10 02:34:37;;;;;;;22.58;12.45;;;;;;;;;;5033183;28;20047;-72
2022/03/10 02:37:03;;;;;;;21.80;11.60;;;;;;;;;;5031336;28;20033;-72
2022/03/10 02:39:29;;;;;;;21.55;12.30;;;;;;;;;;5031062;28;20041;-73
2022/03/10 02:41:55;;;;;;;22.58;12.57;;;;;;;;;;5030999;28;20021;-72
2022/03/10 02:44:22;;;;;;;19.75;12.35;;;;;;;;;;5030613;28;20037;-72
2022/03/10 02:46:48;;;;;;;21.80;12.02;;;;;;;;;;5031245;28;20144;-71
2022/03/10 02:49:14;;;;;;;20.88;11.60;;;;;;;;;;5031020;28;20464;-72
2022/03/10 02:51:40;;;;;;;19.65;12.30;;;;;;;;;;5031450;28;20049;-72
2022/03/10 02:54:06;;;;;;;19.90;11.23;;;;;;;;;;5030564;28;20169;-72
2022/03/10 02:56:31;;;;;;;20.67;11.80;;;;;;;;;;5013099;28;20029;-72
2022/03/10 02:58:57;;;;;;;20.30;11.05;;;;;;;;;;5013252;28;20053;-72
2022/03/10 03:01:23;;;;;;;20.23;11.25;;;;;;;;;;5013596;28;20025;-71
2022/03/10 03:03:49;;;;;;;23.52;12.75;;;;;;;;;;5054016;28;20025;-71
2022/03/10 03:06:15;;;;;;;20.35;11.93;;;;;;;;;;5016583;28;20475;-72
2022/03/10 03:08:41;;;;;;;20.20;11.93;;;;;;;;;;5034693;28;20029;-72
2022/03/10 03:11:07;;;;;;;22.52;11.85;;;;;;;;;;5032325;28;20103;-72
2022/03/10 03:13:34;;;;;;;20.60;11.73;;;;;;;;;;5063892;22;20059;-69
2022/03/10 03:16:00;;;;;;;22.30;12.68;;;;;;;;;;5053660;28;20029;-68
2022/03/10 03:18:26;;;;;;;23.02;11.70;;;;;;;;;;5054432;28;20048;-69
2022/03/10 03:20:52;;;;;;;22.27;13.40;;;;;;;;;;5054218;28;20510;-68
2022/03/10 03:23:18;;;;;;;20.15;12.20;;;;;;;;;;5053973;28;20475;-67
2022/03/10 03:25:44;;;;;;;21.35;12.52;;;;;;;;;;5054176;28;20376;-68
2022/03/10 03:28:10;;;;;;;21.58;11.98;;;;;;;;;;5054038;28;20051;-68
2022/03/10 03:30:36;;;;;;;22.10;12.77;;;;;;;;;;5035961;28;20510;-68
2022/03/10 03:33:02;;;;;;;21.90;12.30;;;;;;;;;;5052399;28;20368;-68
2022/03/10 03:35:28;;;;;;;24.58;12.63;;;;;;;;;;5053913;28;20036;-69
2022/03/10 03:37:54;;;;;;;24.55;12.32;;;;;;;;;;5053974;28;20032;-69
2022/03/10 03:40:20;;;;;;;25.67;13.95;;;;;;;;;;5054330;28;20371;-67
2022/03/10 03:42:46;;;;;;;22.30;12.32;;;;;;;;;;5053476;28;20029;-68
2022/03/10 03:45:12;;;;;;;22.92;13.07;;;;;;;;;;5053460;28;20075;-69
2022/03/10 03:47:38;;;;;;;24.92;13.85;;;;;;;;;;5053905;28;20038;-67
2022/03/10 03:50:04;;;;;;;21.95;14.52;;;;;;;;;;5053898;28;20032;-68
2022/03/10 03:52:30;;;;;;;23.13;13.00;;;;;;;;;;5035534;28;20029;-68
2022/03/10 03:54:56;;;;;;;22.35;12.50;;;;;;;;;;5053252;28;20031;-68
2022/03/10 03:57:22;;;;;;;24.20;12.02;;;;;;;;;;5053587;28;20344;-71
2022/03/10 03:59:48;;;;;;;24.48;12.82;;;;;;;;;;5035517;28;20060;-70
2022/03/10 04:02:14;;;;;;;18.33;11.45;;;;;;;;;;5053293;28;20471;-68
2022/03/10 04:04:40;;;;;;;23.70;14.05;;;;;;;;;;5053332;28;20097;-68
2022/03/10 04:07:06;;;;;;;28.00;13.15;;;;;;;;;;5053316;28;20032;-68
2022/03/10 04:09:32;;;;;;;22.67;12.60;;;;;;;;;;5053243;28;20443;-68
2022/03/10 04:11:58;;;;;;;24.77;12.98;;;;;;;;;;5052803;28;20036;-68
2022/03/10 04:14:24;;;;;;;23.77;12.15;;;;;;;;;;5052873;28;20040;-67
2022/03/10 04:16:50;;;;;;;24.05;12.45;;;;;;;;;;5053196;28;20075;-67
2022/03/10 04:19:16;;;;;;;20.38;11.50;;;;;;;;;;5035221;28;20129;-68
2022/03/10 04:21:42;;;;;;;21.33;13.10;;;;;;;;;;5053181;28;20024;-69
2022/03/10 04:24:08;;;;;;;21.45;12.27;;;;;;;;;;5052815;28;20021;-69
2022/03/10 04:26:34;;;;;;;20.10;11.38;;;;;;;;;;5053737;28;20059;-70
2022/03/10 04:29:00;;;;;;;20.33;11.57;;;;;;;;;;5053366;28;20036;-68
2022/03/10 04:31:26;;;;;;;21.00;11.88;;;;;;;;;;5052872;28;20058;-68
2022/03/10 04:33:52;;;;;;;21.45;11.75;;;;;;;;;;5052542;28;20421;-69
2022/03/10 04:36:17;;;;;;;22.40;11.65;;;;;;;;;;5052781;28;20033;-68
2022/03/10 04:38:44;;;;;;;23.52;12.05;;;;;;;;;;5050987;28;20137;-69
2022/03/10 04:41:10;;;;;;;22.73;12.48;;;;;;;;;;5051244;28;20028;-68
2022/03/10 04:43:36;;;;;;;22.90;13.15;;;;;;;;;;5048694;28;20029;-69
2022/03/10 04:46:03;;;;;;;16.95;10.82;;;;;;;;;;5052586;28;20025;-69
2022/03/10 04:48:29;;;;;;;20.73;13.05;;;;;;;;;;5052560;28;20506;-66
2022/03/10 04:50:55;;;;;;;22.88;12.23;;;;;;;;;;5052469;28;20033;-67
2022/03/10 04:53:21;;;;;;;23.15;13.40;;;;;;;;;;5052222;28;20032;-69
2022/03/10 04:55:47;;;;;;;20.40;11.50;;;;;;;;;;5052232;28;20115;-68
2022/03/10 04:58:13;;;;;;;19.33;11.80;;;;;;;;;;5052345;28;20029;-69
2022/03/10 05:00:39;;;;;;;21.60;11.85;;;;;;;;;;5034521;28;20025;-68
2022/03/10 05:03:05;;;;;;;23.58;11.88;;;;;;;;;;5051738;28;20040;-69
2022/03/10 05:05:31;;;;;;;22.92;12.50;;;;;;;;;;5052542;28;20029;-68
2022/03/10 05:07:57;;;;;;;22.52;11.63;;;;;;;;;;5052182;28;20375;-70
2022/03/10 05:10:23;;;;;;;24.25;12.45;;;;;;;;;;5051939;28;20559;-67
2022/03/10 05:12:51;;;;;;;21.48;12.00;;;;;;;;;;5051492;28;20060;-66
2022/03/10 05:15:18;;;;;;;21.38;12.70;;;;;;;;;;5052091;28;20029;-69
2022/03/10 05:17:44;;;;;;;25.08;14.68;;;;;;;;;;5052025;28;20033;-69
2022/03/10 05:20:10;;;;;;;21.88;12.70;;;;;;;;;;5051971;28;20372;-67
2022/03/10 05:23:02;;;;;;;23.33;13.68;;;;;;;;;;5051818;28;20108;-67
2022/03/10 05:25:33;;;;;;;24.25;13.07;;;;;;;;;;5047154;28;20036;-68
2022/03/10 05:27:59;;;;;;;26.52;13.40;;;;;;;;;;5052370;28;20402;-65
2022/03/10 05:30:25;;;;;;;23.30;13.50;;;;;;;;;;5051972;28;20029;-69
2022/03/10 05:32:52;;;;;;;21.13;12.70;;;;;;;;;;5051574;28;20036;-68
2022/03/10 05:35:18;;;;;;;20.50;12.38;;;;;;;;;;5051770;28;20021;-68
2022/03/10 05:37:45;;;;;;;21.50;12.57;;;;;;;;;;5051295;28;20027;-68
2022/03/10 05:40:12;;;;;;;26.50;12.75;;;;;;;;;;5051600;28;20016;-69
2022/03/10 05:42:39;;;;;;;20.65;11.93;;;;;;;;;;5051689;28;20032;-68
2022/03/10 05:45:05;;;;;;;25.67;13.55;;;;;;;;;;5052008;28;20036;-69
2022/03/10 05:47:31;;;;;;;22.75;13.48;;;;;;;;;;5051980;28;20025;-71
2022/03/10 05:49:57;;;;;;;24.35;12.88;;;;;;;;;;5051853;28;20086;-70
2022/03/10 05:52:23;;;;;;;20.90;11.50;;;;;;;;;;5051638;28;20086;-68
2022/03/10 05:54:49;;;;;;;17.85;10.10;;;;;;;;;;5051104;28;20479;-68
2022/03/10 05:57:16;;;;;;;15.40;8.68;;;;;;;;;;5051374;28;20367;-71
2022/03/10 05:59:42;;;;;;;17.80;8.98;;;;;;;;;;5051372;28;20502;-70
2022/03/10 06:02:07;;;;;;;15.32;8.15;;;;;;;;;;5051275;28;20025;-69
2022/03/10 06:04:33;;;;;;;14.18;7.75;;;;;;;;;;5051097;28;20617;-69
2022/03/10 06:07:00;;;;;;;13.75;8.05;;;;;;;;;;5051149;28;20029;-70
2022/03/10 06:09:26;;;;;;;13.85;8.02;;;;;;;;;;5041579;28;20032;-68
2022/03/10 06:11:52;;;;;;;12.60;7.38;;;;;;;;;;5051168;28;20025;-66
2022/03/10 06:14:18;;;;;;;13.68;7.55;;;;;;;;;;5033178;28;20035;-68
2022/03/10 06:16:44;;;;;;;12.13;6.90;;;;;;;;;;5050852;28;20056;-67
2022/03/10 06:19:10;;;;;;;16.15;8.70;;;;;;;;;;5051349;28;20041;-68
2022/03/10 06:21:37;;;;;;;11.55;6.97;;;;;;;;;;5050804;28;20079;-68
2022/03/10 06:24:03;;;;;;;12.20;7.07;;;;;;;;;;5050545;28;20027;-69
2022/03/10 06:26:29;;;;;;;13.10;7.93;;;;;;;;;;5051338;28;20021;-69
2022/03/10 06:28:55;;;;;;;12.50;8.27;;;;;;;;;;5051049;28;20033;-68
2022/03/10 06:31:23;;;;;;;11.82;7.07;;;;;;;;;;5051007;28;20540;-67
2022/03/10 06:33:49;;;;;;;13.02;8.32;;;;;;;;;;5050610;28;20124;-67
2022/03/10 06:36:15;;;;;;;12.70;7.07;;;;;;;;;;5050546;28;20025;-66
2022/03/10 06:38:41;;;;;;;10.73;6.60;;;;;;;;;;5052220;28;20036;-68
2022/03/10 06:41:07;;;;;;;14.05;7.57;;;;;;;;;;5054159;28;20021;-72
2022/03/10 06:43:34;;;;;;;10.35;6.65;;;;;;;;;;5052268;28;20025;-69
2022/03/10 06:45:59;;;;;;;12.02;6.20;;;;;;;;;;5034708;28;20104;-70
2022/03/10 06:48:25;;;;;;;11.50;7.25;;;;;;;;;;5052486;28;20400;-69
2022/03/10 06:50:51;;;;;;;21.23;7.32;;;;;;;;;;5053327;28;20434;-69
2022/03/10 06:53:18;;;;;;;12.70;7.63;;;;;;;;;;5035114;28;20036;-69
2022/03/10 06:55:44;;;;;;;11.85;7.18;;;;;;;;;;5053795;28;20087;-70
2022/03/10 06:58:09;;;;;;;12.20;7.10;;;;;;;;;;5054491;28;20082;-70
2022/03/10 07:00:36;;;;;;;15.73;7.32;;;;;;;;;;5054204;28;20482;-71
2022/03/10 07:03:01;;;;;;;16.70;8.43;;;;;;;;;;5053810;28;20025;-69
2022/03/10 07:05:28;;;;;;;15.02;8.13;;;;;;;;;;5054232;28;20086;-70
2022/03/10 07:07:54;;;;;;;12.30;8.27;;;;;;;;;;5054269;28;20021;-69
2022/03/10 07:10:20;;;;;;;12.27;7.30;;;;;;;;;;5054084;28;20025;-70
2022/03/10 07:12:46;;;;;;;11.45;7.30;;;;;;;;;;5054216;28;20114;-68
2022/03/10 07:15:12;;;;;;;13.85;8.23;;;;;;;;;;5053811;28;20013;-70
2022/03/10 07:17:39;;;;;;;14.60;7.72;;;;;;;;;;5052526;28;20132;-69
2022/03/10 07:20:06;;;;;;;15.02;7.68;;;;;;;;;;5053000;28;20467;-69
2022/03/10 07:22:32;;;;;;;11.02;7.97;;;;;;;;;;5054140;28;20037;-68
2022/03/10 07:24:58;;;;;;;15.23;8.63;;;;;;;;;;5054077;28;20025;-68
2022/03/10 07:27:23;;;;;;;11.75;7.65;;;;;;;;;;5054014;28;20139;-71
2022/03/10 07:29:49;;;;;;;16.98;9.30;;;;;;;;;;5053367;28;20028;-68
2022/03/10 07:32:16;;;;;;;13.27;8.07;;;;;;;;;;5053348;28;20029;-68
2022/03/10 07:34:44;;;;;;;12.70;8.27;;;;;;;;;;5053221;28;20376;-68
2022/03/10 07:37:10;;;;;;;13.27;8.30;;;;;;;;;;5053588;28;20029;-70
2022/03/10 07:39:36;;;;;;;14.00;8.63;;;;;;;;;;5053714;28;20104;-70
2022/03/10 07:42:02;;;;;;;14.10;7.95;;;;;;;;;;5053437;28;20063;-70
2022/03/10 07:44:28;;;;;;;28.42;12.18;;;;;;;;;;5053090;28;20104;-70
2022/03/10 07:46:54;;;;;;;13.82;7.70;;;;;;;;;;5053186;28;20123;-69
2022/03/10 07:49:20;;;;;;;18.50;9.77;;;;;;;;;;5053307;28;20024;-68
2022/03/10 07:51:46;;;;;;;22.02;9.45;;;;;;;;;;5053254;28;20021;-69
2022/03/10 07:54:12;;;;;;;44.67;22.52;;;;;;;;;;5035065;28;20394;-67
2022/03/10 07:56:38;;;;;;;19.38;9.20;;;;;;;;;;5053022;28;20028;-66
2022/03/10 07:59:04;;;;;;;20.25;10.52;;;;;;;;;;5053145;28;20021;-67
2022/03/10 08:01:31;;;;;;;20.23;10.27;;;;;;;;;;5053144;28;20100;-69
2022/03/10 08:03:57;;;;;;;19.35;9.65;;;;;;;;;;5052912;28;20024;-68
2022/03/10 08:06:24;;;;;;;37.70;18.25;;;;;;;;;;5053103;28;20075;-68
2022/03/10 08:08:50;;;;;;;17.17;10.45;;;;;;;;;;5052966;28;20491;-68
2022/03/10 08:11:16;;;;;;;17.38;10.40;;;;;;;;;;5052716;28;20029;-70
2022/03/10 08:13:42;;;;;;;66.70;32.10;;;;;;;;;;5052403;28;20035;-67
2022/03/10 08:16:08;;;;;;;19.15;10.15;;;;;;;;;;5052872;28;20029;-68
2022/03/10 08:18:34;;;;;;;18.90;11.45;;;;;;;;;;5052809;28;20029;-69
2022/03/10 08:21:00;;;;;;;22.25;12.65;;;;;;;;;;5052836;28;20033;-69
2022/03/10 08:23:27;;;;;;;17.52;10.10;;;;;;;;;;5052566;28;20029;-67
2022/03/10 08:25:54;;;;;;;21.42;10.45;;;;;;;;;;5052650;28;20029;-69
2022/03/10 08:28:20;;;;;;;134.38;54.55;;;;;;;;;;5052888;28;20025;-69
2022/03/10 08:30:46;;;;;;;19.58;9.98;;;;;;;;;;5052228;28;20029;-68
2022/03/10 08:33:12;;;;;;;30.85;16.48;;;;;;;;;;5052375;28;20056;-68
2022/03/10 08:35:38;;;;;;;31.63;16.65;;;;;;;;;;5053127;28;20286;-70
2022/03/10 08:38:04;;;;;;;23.70;10.32;;;;;;;;;;5052567;28;20028;-71
2022/03/10 08:40:30;;;;;;;20.58;10.85;;;;;;;;;;5052332;28;20532;-71
2022/03/10 08:42:56;;;;;;;18.30;9.30;;;;;;;;;;5052619;28;20036;-69
2022/03/10 08:45:25;;;;;;;16.73;10.05;;;;;;;;;;5052469;28;20168;-69
2022/03/10 08:47:51;;;;;;;19.63;9.95;;;;;;;;;;5052499;28;20025;-69
2022/03/10 08:50:17;;;;;;;27.77;14.20;;;;;;;;;;5052257;28;20021;-69
2022/03/10 08:52:43;;;;;;;19.08;10.10;;;;;;;;;;5051955;28;20058;-69
2022/03/10 08:55:10;;;;;;;25.80;10.30;;;;;;;;;;5051896;28;20017;-69
2022/03/10 08:57:37;;;;;;;20.65;11.38;;;;;;;;;;5052053;28;20503;-69
2022/03/10 09:00:11;;;;;;;15.93;10.07;;;;;;;;;;5051454;28;20071;-70
2022/03/10 09:02:37;;;;;;;17.77;10.45;;;;;;;;;;5051834;28;20087;-68
2022/03/10 09:05:04;;;;;;;14.88;9.55;;;;;;;;;;5034160;28;20483;-69
2022/03/10 09:07:30;;;;;;;18.48;9.32;;;;;;;;;;5052264;28;20025;-68
2022/03/10 09:09:56;;;;;;;19.10;10.00;;;;;;;;;;5052334;28;20086;-68
2022/03/10 09:12:22;;;;;;;21.02;9.95;;;;;;;;;;5067767;22;20489;-68
2022/03/10 09:14:48;;;;;;;16.63;10.27;;;;;;;;;;5033470;28;20033;-71
2022/03/10 09:17:14;;;;;;;26.02;13.70;;;;;;;;;;5018364;28;20344;-71
2022/03/10 09:19:40;;;;;;;27.63;14.77;;;;;;;;;;5034060;28;20037;-73
2022/03/10 09:22:06;;;;;;;17.67;10.00;;;;;;;;;;5036875;28;20029;-71
2022/03/10 09:24:32;;;;;;;16.33;10.15;;;;;;;;;;5029403;28;20480;-71
2022/03/10 09:26:58;;;;;;;19.20;10.20;;;;;;;;;;4999255;28;20076;-71
2022/03/10 09:29:24;;;;;;;17.90;9.77;;;;;;;;;;5017235;28;20030;-72
2022/03/10 09:31:50;;;;;;;20.42;11.05;;;;;;;;;;5016936;28;20032;-71
2022/03/10 09:34:16;;;;;;;20.27;11.60;;;;;;;;;;5016511;28;20506;-70
2022/03/10 09:36:42;;;;;;;20.27;11.43;;;;;;;;;;4998239;28;20029;-71
2022/03/10 09:39:09;;;;;;;19.02;10.98;;;;;;;;;;5014369;28;20045;-70
2022/03/10 09:41:37;;;;;;;18.80;11.02;;;;;;;;;;5020474;28;20112;-71
2022/03/10 09:44:09;;;;;;;20.77;11.65;;;;;;;;;;5016953;28;20175;-71
2022/03/10 09:46:35;;;;;;;17.60;10.82;;;;;;;;;;5036281;28;20490;-72
2022/03/10 09:49:01;;;;;;;22.10;10.65;;;;;;;;;;5032473;28;20034;-72
2022/03/10 09:51:27;;;;;;;19.10;11.00;;;;;;;;;;5032107;28;20049;-70
2022/03/10 09:53:53;;;;;;;22.65;11.75;;;;;;;;;;5013944;28;20502;-70
2022/03/10 09:56:20;;;;;;;19.88;11.52;;;;;;;;;;5031990;28;20060;-70
2022/03/10 09:58:46;;;;;;;21.75;12.45;;;;;;;;;;5032096;28;20026;-71
2022/03/10 10:01:12;;;;;;;28.58;16.05;;;;;;;;;;5031953;28;20033;-71
2022/03/10 10:03:38;;;;;;;19.83;10.60;;;;;;;;;;5031609;28;20029;-71
2022/03/10 10:06:04;;;;;;;18.50;11.63;;;;;;;;;;5031749;28;20057;-71
2022/03/10 10:08:31;;;;;;;24.95;12.10;;;;;;;;;;5031814;28;20491;-71
2022/03/10 10:10:59;;;;;;;20.63;10.80;;;;;;;;;;5033280;28;20029;-71
2022/03/10 10:13:43;;;;;;;22.38;12.00;;;;;;;;;;5035656;28;20510;-70
2022/03/10 10:16:19;;;;;;;17.38;10.60;;;;;;;;;;5035892;28;20387;-71
2022/03/10 10:18:45;;;;;;;19.75;11.68;;;;;;;;;;5035995;28;20025;-70
2022/03/10 10:21:14;;;;;;;74.88;35.47;;;;;;;;;;5036298;28;20022;-71
2022/03/10 10:23:40;;;;;;;18.58;10.80;;;;;;;;;;5035896;28;20087;-71
2022/03/10 10:26:10;;;;;;;16.50;10.07;;;;;;;;;;5035910;28;20030;-71
2022/03/10 10:28:37;;;;;;;18.58;9.82;;;;;;;;;;5035764;28;20072;-71
2022/03/10 10:31:07;;;;;;;21.60;11.50;;;;;;;;;;5035949;28;20071;-71
2022/03/10 10:33:34;;;;;;;37.78;19.98;;;;;;;;;;5035529;28;20053;-70
2022/03/10 10:36:15;;;;;;;24.48;13.63;;;;;;;;;;5035689;28;20526;-71
2022/03/10 10:38:42;;;;;;;18.17;9.60;;;;;;;;;;5035670;28;20037;-71
2022/03/10 10:41:40;;;;;;;16.85;9.30;;;;;;;;;;5036007;28;20021;-71
2022/03/10 10:44:07;;;;;;;31.13;15.35;;;;;;;;;;4991896;28;20033;-71
2022/03/10 10:46:41;;;;;;;18.63;10.18;;;;;;;;;;5035710;28;20365;-71
2022/03/10 10:49:08;;;;;;;13.85;8.70;;;;;;;;;;5035143;28;20045;-71
2022/03/10 10:51:39;;;;;;;13.57;8.50;;;;;;;;;;5035650;28;20033;-71
2022/03/10 10:54:06;;;;;;;13.98;8.40;;;;;;;;;;5034923;28;20399;-70
2022/03/10 10:56:34;;;;;;;19.23;8.43;;;;;;;;;;5035587;28;20496;-71
2022/03/10 10:59:03;;;;;;;14.40;7.85;;;;;;;;;;5035975;28;20365;-71
2022/03/10 11:01:30;;;;;;;15.25;8.07;;;;;;;;;;5035445;28;20598;-71
2022/03/10 11:03:56;;;;;;;27.63;15.18;;;;;;;;;;5035407;28;20033;-71
2022/03/10 11:06:22;;;;;;;15.50;8.10;;;;;;;;;;5022661;28;20036;-71
2022/03/10 11:08:48;;;;;;;16.92;7.47;;;;;;;;;;5039677;28;20397;-71
2022/03/10 11:11:15;;;;;;;13.65;7.72;;;;;;;;;;5046494;28;20080;-70
2022/03/10 11:13:41;;;;;;;16.83;8.90;;;;;;;;;;5046907;28;20057;-71
2022/03/10 11:16:08;;;;;;;12.55;6.25;;;;;;;;;;5046919;28;20029;-71
2022/03/10 11:18:34;;;;;;;11.48;6.25;;;;;;;;;;5039908;28;20108;-71
2022/03/10 11:21:09;;;;;;;14.82;6.85;;;;;;;;;;5035796;28;20434;-70
2022/03/10 11:23:54;;;;;;;10.10;6.28;;;;;;;;;;5016186;28;20029;-71
2022/03/10 11:26:31;;;;;;;10.20;6.22;;;;;;;;;;5017106;28;20172;-70
2022/03/10 11:28:58;;;;;;;11.20;6.32;;;;;;;;;;5017078;28;20042;-71
2022/03/10 11:31:24;;;;;;;10.60;6.10;;;;;;;;;;5016603;28;20029;-71
2022/03/10 11:33:50;;;;;;;11.98;6.90;;;;;;;;;;5034256;28;20133;-70
2022/03/10 11:36:23;;;;;;;10.85;6.53;;;;;;;;;;5034492;28;20028;-72
2022/03/10 11:38:59;;;;;;;15.95;7.20;;;;;;;;;;5035129;28;20422;-70
2022/03/10 11:41:29;;;;;;;10.57;6.32;;;;;;;;;;5034640;28;20021;-70
2022/03/10 11:43:57;;;;;;;13.05;7.28;;;;;;;;;;5034519;28;20035;-71
2022/03/10 11:46:25;;;;;;;14.27;7.10;;;;;;;;;;5016883;28;20030;-71
2022/03/10 11:49:00;;;;;;;11.20;6.05;;;;;;;;;;5034478;28;20053;-72
2022/03/10 11:51:42;;;;;;;10.27;6.30;;;;;;;;;;5034260;28;20057;-70
2022/03/10 11:54:08;;;;;;;;;;;;;;;;;;5033890;28;20108;-71
2022/03/10 11:56:55;;;;;;;15.35;7.80;;;;;;;;;;5016390;28;19905;-71
2022/03/10 11:59:25;;;;;;;14.65;6.45;;;;;;;;;;5021776;28;20129;-72
2022/03/10 12:01:53;;;;;;;14.23;6.57;;;;;;;;;;5016981;28;20029;-71
2022/03/10 12:04:22;;;;;;;9.18;6.07;;;;;;;;;;5016845;28;20029;-72
2022/03/10 12:06:56;;;;;;;13.02;6.57;;;;;;;;;;5036159;28;20036;-72
2022/03/10 12:09:29;;;;;;;13.07;6.63;;;;;;;;;;5017090;28;20100;-71
2022/03/10 12:12:15;;;;;;;14.60;7.95;;;;;;;;;;5036813;28;20104;-71
2022/03/10 12:14:41;;;;;;;12.68;6.68;;;;;;;;;;5016137;28;20042;-72
2022/03/10 12:17:26;;;;;;;11.52;6.80;;;;;;;;;;5037585;28;20029;-71
2022/03/10 12:20:11;;;;;;;13.52;7.32;;;;;;;;;;5035940;28;20021;-72
2022/03/10 12:22:37;;;;;;;12.10;6.18;;;;;;;;;;5016447;28;20453;-71
2022/03/10 12:25:22;;;;;;;12.23;6.90;;;;;;;;;;5034158;28;20038;-70
2022/03/10 12:27:55;;;;;;;11.02;7.15;;;;;;;;;;5012988;28;20048;-71
2022/03/10 12:30:22;;;;;;;11.52;7.53;;;;;;;;;;5033586;28;20037;-72
2022/03/10 12:32:52;;;;;;;11.50;7.43;;;;;;;;;;5033417;28;20094;-71
2022/03/10 12:35:21;;;;;;;11.50;7.28;;;;;;;;;;5033229;28;20049;-70
2022/03/10 12:37:48;;;;;;;12.88;7.47;;;;;;;;;;5025860;28;20049;-71
2022/03/10 12:40:20;;;;;;;15.23;8.07;;;;;;;;;;5013713;28;20104;-70
2022/03/10 12:42:47;;;;;;;17.40;8.88;;;;;;;;;;5013123;28;20040;-70
2022/03/10 12:45:14;;;;;;;14.07;9.10;;;;;;;;;;5013839;28;20488;-70
2022/03/10 12:47:44;;;;;;;14.38;9.48;;;;;;;;;;5013555;28;20041;-71
2022/03/10 12:50:11;;;;;;;14.20;8.30;;;;;;;;;;5013558;28;20503;-70
2022/03/10 12:52:40;;;;;;;15.52;9.32;;;;;;;;;;5013128;28;20032;-72
2022/03/10 12:55:07;;;;;;;15.85;10.07;;;;;;;;;;5013124;28;20025;-72
2022/03/10 12:57:37;;;;;;;17.08;10.15;;;;;;;;;;5013320;28;20026;-70
2022/03/10 13:00:03;;;;;;;13.68;8.32;;;;;;;;;;5013101;28;20030;-71
2022/03/10 13:02:29;;;;;;;16.10;9.05;;;;;;;;;;5013095;28;20037;-70
2022/03/10 13:04:57;;;;;;;15.23;9.23;;;;;;;;;;5012568;28;20029;-71
2022/03/10 13:07:25;;;;;;;16.48;9.77;;;;;;;;;;5013176;28;20033;-71
2022/03/10 13:09:52;;;;;;;16.63;10.70;;;;;;;;;;4995015;28;20113;-71
2022/03/10 13:12:27;;;;;;;18.55;10.23;;;;;;;;;;5012761;28;20136;-70
2022/03/10 13:14:53;;;;;;;15.20;10.15;;;;;;;;;;5012640;28;20089;-70
2022/03/10 13:17:30;;;;;;;16.35;10.82;;;;;;;;;;5012704;28;20092;-71
2022/03/10 13:19:56;;;;;;;18.17;10.57;;;;;;;;;;5012850;28;20492;-70
2022/03/10 13:22:22;;;;;;;18.05;9.68;;;;;;;;;;5012394;28;20033;-70
2022/03/10 13:24:50;;;;;;;15.50;9.43;;;;;;;;;;4995050;28;20116;-71
2022/03/10 13:27:17;;;;;;;16.60;10.40;;;;;;;;;;5012539;28;20391;-71
2022/03/10 13:29:44;;;;;;;20.42;11.30;;;;;;;;;;5012656;28;20108;-72
2022/03/10 13:32:11;;;;;;;17.70;11.35;;;;;;;;;;5012649;28;20022;-70
2022/03/10 13:34:37;;;;;;;16.90;10.48;;;;;;;;;;5012452;28;20092;-72
2022/03/10 13:37:04;;;;;;;16.55;10.75;;;;;;;;;;5012398;28;20050;-72
2022/03/10 13:39:31;;;;;;;18.38;10.73;;;;;;;;;;5012682;28;20503;-71
2022/03/10 13:41:57;;;;;;;21.02;11.90;;;;;;;;;;5012980;28;20105;-73
2022/03/10 13:44:23;;;;;;;21.20;12.45;;;;;;;;;;5012940;28;20044;-72
2022/03/10 13:46:49;;;;;;;21.02;12.88;;;;;;;;;;5012319;28;20507;-71
2022/03/10 13:49:19;;;;;;;23.15;13.15;;;;;;;;;;5012800;28;20499;-70
2022/03/10 13:51:49;;;;;;;21.33;11.90;;;;;;;;;;5012598;28;20337;-72
2022/03/10 13:54:16;;;;;;;25.10;13.57;;;;;;;;;;5012234;28;20160;-70
2022/03/10 13:56:43;;;;;;;22.48;14.35;;;;;;;;;;5012456;28;20488;-71
2022/03/10 13:59:09;;;;;;;27.48;14.77;;;;;;;;;;5012599;28;20072;-71
2022/03/10 14:01:37;;;;;;;23.63;14.27;;;;;;;;;;4994970;28;20580;-70
2022/03/10 14:04:08;;;;;;;23.67;14.00;;;;;;;;;;5011975;28;20102;-70
2022/03/10 14:06:41;;;;;;;24.95;14.68;;;;;;;;;;5012410;28;20057;-71
2022/03/10 14:09:15;;;;;;;25.35;15.88;;;;;;;;;;5011830;28;20026;-71
2022/03/10 14:11:41;;;;;;;28.25;14.85;;;;;;;;;;5011293;28;20484;-70
2022/03/10 14:14:07;;;;;;;27.83;15.55;;;;;;;;;;5011605;28;20030;-70
2022/03/10 14:16:33;;;;;;;22.42;14.65;;;;;;;;;;5012826;28;20030;-71
2022/03/10 14:19:02;;;;;;;27.05;16.02;;;;;;;;;;4995082;28;20025;-72
2022/03/10 14:21:28;;;;;;;27.60;14.48;;;;;;;;;;5012450;28;20076;-71
2022/03/10 14:23:54;;;;;;;25.02;14.93;;;;;;;;;;5012301;28;20223;-70
2022/03/10 14:26:21;;;;;;;21.13;12.65;;;;;;;;;;5012694;28;20460;-71